Time;durP1;ratioP1;P1;durP2;ratioP2;P2;SDS_P1;SDS_P2;PMS_P1;PMS_P2;Temp;Humidity;BMP_temperature;BMP_pressure;BME280_temperature;BME280_humidity;BME280_pressure;Samples;Min_cycle;Max_cycle;Signal;HPM_P1;HPM_P2
2022/06/11 00:01:47;;;;;;;2.78;1.40;;;;;;;27.15;46.53;99823.13;5056429;28;20351;-83
2022/06/11 00:04:17;;;;;;;3.10;1.40;;;;;;;27.14;46.21;99824.09;5056156;28;20028;-83
2022/06/11 00:06:47;;;;;;;2.45;1.30;;;;;;;27.13;46.33;99833.13;5056442;28;20458;-83
2022/06/11 00:09:13;;;;;;;4.07;1.48;;;;;;;27.13;46.35;99835.81;5056110;28;20041;-84
2022/06/11 00:11:40;;;;;;;1.83;1.00;;;;;;;27.11;46.62;99835.91;5056200;28;20120;-83
2022/06/11 00:14:07;;;;;;;3.45;1.30;;;;;;;27.10;46.32;99831.56;5057152;28;20024;-84
2022/06/11 00:16:33;;;;;;;4.22;1.92;;;;;;;27.10;46.66;99833.41;5056298;28;20036;-84
2022/06/11 00:19:00;;;;;;;2.60;1.20;;;;;;;27.08;46.61;99831.66;5056172;28;20021;-84
2022/06/11 00:21:30;;;;;;;3.40;1.35;;;;;;;27.06;46.41;99822.91;5056093;28;20021;-83
2022/06/11 00:23:55;;;;;;;3.55;1.45;;;;;;;27.06;46.39;99825.59;5056191;28;20025;-87
2022/06/11 00:26:22;;;;;;;4.28;1.80;;;;;;;27.06;46.59;99822.91;5055864;28;20027;-85
2022/06/11 00:28:49;;;;;;;3.95;1.50;;;;;;;27.05;46.40;99826.56;5056899;28;20059;-84
2022/06/11 00:31:15;;;;;;;3.35;1.20;;;;;;;27.04;46.83;99822.19;5056077;28;20450;-85
2022/06/11 00:33:42;;;;;;;3.30;1.60;;;;;;;27.03;46.46;99817.78;5058482;28;20088;-82
2022/06/11 00:36:09;;;;;;;3.92;1.10;;;;;;;27.02;46.47;99815.25;5057522;28;20028;-81
2022/06/11 00:38:36;;;;;;;3.92;1.70;;;;;;;27.00;46.43;99812.72;5055890;28;20370;-84
2022/06/11 00:41:04;;;;;;;3.15;1.30;;;;;;;27.01;46.40;99814.41;5056649;28;20109;-82
2022/06/11 00:43:31;;;;;;;3.75;1.27;;;;;;;26.99;46.72;99811.00;5055618;28;20105;-82
2022/06/11 00:46:19;;;;;;;3.28;1.60;;;;;;;26.98;46.21;99813.81;5055617;28;20108;-82
2022/06/11 00:48:47;;;;;;;3.83;1.40;;;;;;;26.97;46.53;99807.59;5056760;28;20044;-81
2022/06/11 00:51:20;;;;;;;3.13;1.30;;;;;;;26.96;46.69;99800.53;5056760;28;20020;-81
2022/06/11 00:53:51;;;;;;;3.83;1.55;;;;;;;26.95;46.77;99806.88;5055236;28;20032;-83
2022/06/11 00:56:37;;;;;;;3.22;1.40;;;;;;;26.94;46.40;99802.50;5055320;28;20036;-84
2022/06/11 00:59:06;;;;;;;3.17;1.17;;;;;;;26.94;46.53;99808.69;5056841;28;20025;-83
2022/06/11 01:01:33;;;;;;;3.03;1.33;;;;;;;26.93;46.58;99811.50;5056449;28;20362;-82
2022/06/11 01:04:02;;;;;;;4.10;1.25;;;;;;;26.93;46.96;99811.50;5056205;28;20070;-82
2022/06/11 01:06:33;;;;;;;3.10;1.40;;;;;;;26.92;46.79;99809.81;5056032;28;20032;-83
2022/06/11 01:09:20;;;;;;;3.17;1.00;;;;;;;26.90;46.43;99803.69;5055862;28;20537;-83
2022/06/11 01:12:31;;;;;;;3.75;1.17;;;;;;;26.90;46.80;99801.88;5055416;28;20021;-82
2022/06/11 01:15:27;;;;;;;2.58;1.30;;;;;;;26.89;46.92;99801.97;5037638;28;20037;-82
2022/06/11 01:17:56;;;;;;;4.15;1.48;;;;;;;26.88;47.05;99802.97;5059003;28;20112;-82
2022/06/11 01:20:26;;;;;;;3.25;1.35;;;;;;;26.87;46.99;99806.63;5057611;28;20028;-83
2022/06/11 01:23:13;;;;;;;3.53;1.70;;;;;;;26.86;46.83;99804.88;5059520;28;20017;-82
2022/06/11 01:25:54;;;;;;;3.33;1.13;;;;;;;26.86;47.06;99800.41;5059465;28;20458;-84
2022/06/11 01:28:36;;;;;;;2.20;1.00;;;;;;;26.84;46.75;99797.00;5060768;28;20103;-83
2022/06/11 01:31:19;;;;;;;3.17;1.33;;;;;;;26.84;47.03;99805.03;5057667;28;20024;-84
2022/06/11 01:34:04;;;;;;;3.75;1.50;;;;;;;26.83;47.08;99794.44;5058159;28;20025;-83
2022/06/11 01:36:39;;;;;;;1.75;1.05;;;;;;;26.81;47.22;99790.06;5060469;28;20133;-84
2022/06/11 01:39:11;;;;;;;3.25;1.52;;;;;;;26.80;46.66;99790.19;5060163;28;20032;-84
2022/06/11 01:42:02;;;;;;;3.15;1.40;;;;;;;26.79;46.74;99791.16;5062118;28;20025;-86
2022/06/11 01:44:34;;;;;;;3.58;1.25;;;;;;;26.79;46.63;99796.53;5061158;28;20020;-84
2022/06/11 01:47:01;;;;;;;3.55;1.25;;;;;;;26.78;46.88;99793.00;5060453;28;20021;-86
2022/06/11 01:49:27;;;;;;;3.55;1.48;;;;;;;26.77;46.82;99785.94;5062339;28;20027;-84
2022/06/11 01:52:28;;;;;;;2.65;1.35;;;;;;;26.76;47.09;99789.59;5063564;28;20025;-86
2022/06/11 01:55:05;;;;;;;4.50;1.50;;;;;;;26.75;46.80;99793.25;5054169;28;20039;-87
2022/06/11 01:57:46;;;;;;;3.47;1.40;;;;;;;26.74;46.63;99791.56;5057842;28;20052;-82
2022/06/11 02:00:18;;;;;;;2.42;1.20;;;;;;;26.73;47.19;99787.16;5057141;28;20111;-85
2022/06/11 02:02:59;;;;;;;2.83;1.50;;;;;;;26.73;46.70;99795.19;5054939;28;20116;-84
2022/06/11 02:05:44;;;;;;;2.90;1.23;;;;;;;26.70;47.12;99787.41;5054085;28;20067;-84
2022/06/11 02:08:23;;;;;;;3.42;1.45;;;;;;;26.69;46.66;99788.38;5054052;28;20420;-83
2022/06/11 02:11:01;;;;;;;4.05;1.60;;;;;;;26.68;47.09;99782.19;5053722;28;20158;-82
2022/06/11 02:13:34;;;;;;;3.90;1.42;;;;;;;26.68;46.92;99784.00;5053684;28;20028;-82
2022/06/11 02:16:38;;;;;;;3.90;1.73;;;;;;;26.66;47.03;99783.28;5053832;28;20053;-81
2022/06/11 02:19:13;;;;;;;3.00;1.45;;;;;;;26.65;46.65;99782.44;5055114;28;20154;-82
2022/06/11 02:22:06;;;;;;;3.78;1.50;;;;;;;26.64;47.35;99787.91;5053749;28;20363;-83
2022/06/11 02:24:37;;;;;;;2.47;1.20;;;;;;;26.64;46.91;99795.94;5052406;28;20041;-83
2022/06/11 02:27:09;;;;;;;3.75;1.48;;;;;;;26.63;46.65;99794.25;5053778;28;20028;-82
2022/06/11 02:29:36;;;;;;;4.10;1.70;;;;;;;26.62;46.64;99795.19;5053573;28;20025;-82
2022/06/11 02:32:09;;;;;;;2.25;1.20;;;;;;;26.61;46.65;99802.38;5054571;28;20451;-83
2022/06/11 02:34:39;;;;;;;3.20;1.50;;;;;;;26.61;46.81;99796.16;5054974;28;20061;-83
2022/06/11 02:37:10;;;;;;;3.97;1.90;;;;;;;26.59;46.67;99790.09;5054209;28;20166;-85
2022/06/11 02:39:39;;;;;;;3.42;1.35;;;;;;;26.58;46.68;99791.06;5053631;28;20021;-82
2022/06/11 02:42:08;;;;;;;4.05;1.70;;;;;;;26.56;47.02;99799.22;5055792;28;20031;-82
2022/06/11 02:44:35;;;;;;;3.45;1.52;;;;;;;26.57;47.17;99798.25;5053856;28;20043;-84
2022/06/11 02:47:00;;;;;;;4.05;1.60;;;;;;;26.56;46.83;99798.34;5053765;28;20041;-82
2022/06/11 02:49:31;;;;;;;3.00;1.30;;;;;;;26.54;46.63;99802.00;5054596;28;20029;-85
2022/06/11 02:51:59;;;;;;;3.70;1.75;;;;;;;26.54;46.88;99802.00;5054799;28;20360;-83
2022/06/11 02:54:25;;;;;;;2.60;1.40;;;;;;;26.53;46.70;99804.81;5054546;28;20029;-82
2022/06/11 02:56:53;;;;;;;3.92;1.45;;;;;;;26.53;47.42;99799.44;5057220;28;20033;-85
2022/06/11 02:59:19;;;;;;;3.90;1.60;;;;;;;26.51;47.31;99790.69;5057702;28;20024;-83
2022/06/11 03:01:45;;;;;;;4.03;1.70;;;;;;;26.51;46.77;99802.28;5057847;28;20083;-82
2022/06/11 03:04:11;;;;;;;3.13;1.50;;;;;;;26.50;46.71;99805.94;5057823;28;20036;-83
2022/06/11 03:06:40;;;;;;;3.05;1.40;;;;;;;26.48;47.12;99805.19;5057625;28;20123;-83
2022/06/11 03:09:13;;;;;;;2.70;1.20;;;;;;;26.49;46.94;99806.88;5057332;28;20048;-82
2022/06/11 03:11:39;;;;;;;2.63;1.45;;;;;;;26.48;46.96;99805.19;5057177;28;20048;-84
2022/06/11 03:14:05;;;;;;;3.15;1.23;;;;;;;26.47;46.88;99806.16;5057466;28;20024;-83
2022/06/11 03:16:31;;;;;;;3.38;1.50;;;;;;;26.46;46.97;99809.81;5057339;28;20116;-83
2022/06/11 03:18:56;;;;;;;4.28;1.77;;;;;;;26.46;46.95;99804.47;5058399;28;20020;-84
2022/06/11 03:21:22;;;;;;;2.85;1.50;;;;;;;26.45;47.14;99807.25;5057436;28;20451;-85
2022/06/11 03:23:48;;;;;;;3.42;1.65;;;;;;;26.44;46.95;99806.38;5059426;28;20138;-83
2022/06/11 03:26:14;;;;;;;2.53;1.33;;;;;;;26.42;47.00;99802.97;5057300;28;20477;-83
2022/06/11 03:28:39;;;;;;;3.90;1.50;;;;;;;26.42;46.95;99811.00;5058279;28;20096;-82
2022/06/11 03:31:06;;;;;;;2.67;1.33;;;;;;;26.41;47.18;99812.00;5057459;28;20063;-83
2022/06/11 03:33:37;;;;;;;2.75;1.35;;;;;;;26.42;47.09;99818.19;5058344;28;20362;-83
2022/06/11 03:36:09;;;;;;;3.78;1.83;;;;;;;26.40;46.86;99815.66;5058178;28;20041;-83
2022/06/11 03:38:36;;;;;;;4.70;1.52;;;;;;;26.39;46.70;99808.59;5058420;28;20021;-85
2022/06/11 03:41:03;;;;;;;2.17;1.08;;;;;;;26.37;47.09;99810.53;5056924;28;20115;-83
2022/06/11 03:43:28;;;;;;;3.08;1.40;;;;;;;26.38;46.84;99815.75;5057767;28;20095;-85
2022/06/11 03:45:54;;;;;;;2.20;1.30;;;;;;;26.36;46.86;99816.84;5056855;28;20340;-85
2022/06/11 03:48:20;;;;;;;3.13;1.50;;;;;;;26.36;46.90;99816.84;5056789;28;20407;-84
2022/06/11 03:50:46;;;;;;;3.35;1.38;;;;;;;26.33;46.99;99812.59;5056704;28;20029;-83
2022/06/11 03:53:14;;;;;;;5.30;1.50;;;;;;;26.33;47.15;99822.44;5057947;28;20481;-83
2022/06/11 03:55:42;;;;;;;3.30;1.23;;;;;;;26.31;46.84;99822.56;5057311;28;20419;-84
2022/06/11 03:58:09;;;;;;;2.42;1.10;;;;;;;26.31;46.92;99827.91;5058305;28;20025;-86
2022/06/11 04:03:21;;;;;;;3.25;1.67;;;;;;;26.30;47.10;99830.72;5060009;28;20032;-82
2022/06/11 04:05:49;;;;;;;3.20;1.27;;;;;;;26.27;47.30;99832.66;5059744;28;20082;-84
2022/06/11 04:08:16;;;;;;;2.00;1.38;;;;;;;26.27;47.19;99838.00;5059043;28;20051;-84
2022/06/11 04:10:43;;;;;;;3.38;1.58;;;;;;;26.26;47.13;99830.94;5063757;28;20390;-86
2022/06/11 04:13:10;;;;;;;2.67;1.23;;;;;;;26.25;47.24;99829.22;5062814;28;20339;-84
2022/06/11 04:15:37;;;;;;;3.38;1.58;;;;;;;26.25;47.20;99844.44;5061912;28;20024;-83
2022/06/11 04:18:05;;;;;;;2.03;1.17;;;;;;;26.23;47.05;99849.91;5062080;28;20108;-85
2022/06/11 04:20:31;;;;;;;2.70;1.30;;;;;;;26.24;47.16;99840.91;5058036;28;20436;-82
2022/06/11 04:22:57;;;;;;;3.17;1.45;;;;;;;26.22;46.86;99842.81;5056131;28;20094;-83
2022/06/11 04:25:22;;;;;;;2.58;1.20;;;;;;;26.21;47.23;99846.47;5057047;28;20024;-82
2022/06/11 04:27:53;;;;;;;3.63;1.25;;;;;;;26.21;47.09;99842.94;5056059;28;20025;-83
2022/06/11 04:30:21;;;;;;;2.47;1.30;;;;;;;26.20;46.92;99847.41;5055914;28;20397;-82
2022/06/11 04:32:47;;;;;;;2.78;1.42;;;;;;;26.20;47.12;99851.94;5055874;28;20029;-82
2022/06/11 04:35:13;;;;;;;3.00;1.50;;;;;;;26.18;47.04;99852.06;5055831;28;20450;-84
2022/06/11 04:37:40;;;;;;;3.22;1.48;;;;;;;26.18;46.96;99849.38;5055801;28;20033;-84
2022/06/11 04:40:07;;;;;;;2.55;1.35;;;;;;;26.18;47.00;99849.38;5056822;28;20029;-84
2022/06/11 04:42:34;;;;;;;2.78;1.33;;;;;;;26.17;47.30;99853.03;5056936;28;20044;-84
2022/06/11 04:45:01;;;;;;;2.85;1.30;;;;;;;26.17;47.40;99852.16;5058789;28;20040;-83
2022/06/11 04:47:28;;;;;;;3.03;1.48;;;;;;;26.15;47.15;99860.31;5055623;28;20025;-82
2022/06/11 04:49:57;;;;;;;3.10;1.30;;;;;;;26.16;46.92;99862.03;5055663;28;20178;-82
2022/06/11 04:52:22;;;;;;;2.15;1.10;;;;;;;26.14;47.09;99853.25;5056415;28;20481;-82
2022/06/11 04:54:48;;;;;;;2.20;1.42;;;;;;;26.14;47.47;99853.25;5055658;28;20025;-83
2022/06/11 04:57:14;;;;;;;3.30;1.30;;;;;;;26.13;47.25;99855.09;5055511;28;20083;-82
2022/06/11 04:59:40;;;;;;;2.97;1.50;;;;;;;26.14;46.88;99859.47;5055536;28;20024;-84
2022/06/11 05:02:06;;;;;;;2.55;1.25;;;;;;;26.13;47.34;99857.75;5056535;28;20028;-85
2022/06/11 05:04:32;;;;;;;3.67;1.73;;;;;;;26.13;47.16;99863.13;5055553;28;20029;-82
2022/06/11 05:06:57;;;;;;;2.30;1.25;;;;;;;26.13;47.00;99864.91;5055345;28;20447;-82
2022/06/11 05:09:25;;;;;;;4.00;1.50;;;;;;;26.12;46.74;99855.19;5055096;28;20060;-82
2022/06/11 05:11:52;;;;;;;3.05;1.42;;;;;;;26.11;47.08;99858.84;5056298;28;20037;-83
2022/06/11 05:14:18;;;;;;;2.95;1.50;;;;;;;26.10;47.06;99857.97;5056579;28;20016;-85
2022/06/11 05:16:45;;;;;;;4.00;1.50;;;;;;;26.09;47.22;99860.75;5055110;28;20032;-82
2022/06/11 05:19:13;;;;;;;3.40;1.48;;;;;;;26.11;47.14;99858.84;5054746;28;20029;-85
2022/06/11 05:21:39;;;;;;;2.45;1.33;;;;;;;26.08;47.03;99848.38;5055970;28;20035;-85
2022/06/11 05:24:05;;;;;;;3.75;1.30;;;;;;;26.09;47.43;99855.41;5056131;28;20021;-84
2022/06/11 05:26:42;;;;;;;2.85;1.30;;;;;;;26.10;47.30;99854.47;5057528;28;20025;-82
2022/06/11 05:29:14;;;;;;;3.58;1.40;;;;;;;26.11;46.80;99866.88;5054946;28;20035;-83
2022/06/11 05:31:40;;;;;;;2.50;1.20;;;;;;;26.11;47.20;99858.84;5055853;28;20032;-83
2022/06/11 05:34:05;;;;;;;2.20;1.30;;;;;;;26.11;46.89;99869.53;5054684;28;20028;-83
2022/06/11 05:36:31;;;;;;;2.75;1.20;;;;;;;26.13;46.98;99862.25;5054900;28;20033;-84
2022/06/11 05:38:56;;;;;;;2.88;1.30;;;;;;;26.11;46.83;99870.38;5055770;28;20121;-84
2022/06/11 05:41:22;;;;;;;2.45;1.00;;;;;;;26.08;47.24;99867.09;5054589;28;20571;-83
2022/06/11 05:43:48;;;;;;;2.88;1.58;;;;;;;26.13;46.88;99872.94;5055942;28;20358;-83
2022/06/11 05:46:20;;;;;;;2.65;1.38;;;;;;;26.14;46.76;99880.00;5055589;28;20063;-83
2022/06/11 05:48:55;;;;;;;2.78;1.25;;;;;;;26.14;47.04;99888.00;5054487;28;20025;-83
2022/06/11 05:51:25;;;;;;;3.05;1.30;;;;;;;26.13;46.86;99880.97;5054266;28;20178;-84
2022/06/11 05:53:54;;;;;;;3.70;1.40;;;;;;;26.13;47.03;99895.19;5054415;28;20102;-83
2022/06/11 05:56:20;;;;;;;3.28;1.50;;;;;;;26.15;47.15;99897.75;5055359;28;20025;-83
2022/06/11 05:58:50;;;;;;;3.17;1.40;;;;;;;26.15;46.76;99889.75;5054360;28;20032;-84
2022/06/11 06:01:19;;;;;;;3.97;1.30;;;;;;;26.16;46.96;99882.56;5054447;28;20451;-84
2022/06/11 06:03:45;;;;;;;4.82;1.23;;;;;;;26.15;46.76;99889.75;5054996;28;20025;-82
2022/06/11 06:06:10;;;;;;;2.88;1.33;;;;;;;26.15;46.88;99892.41;5056315;28;20036;-82
2022/06/11 06:08:36;;;;;;;2.70;1.40;;;;;;;26.15;47.11;99895.09;5054120;28;20368;-85
2022/06/11 06:11:01;;;;;;;2.72;1.25;;;;;;;26.14;46.85;99896.03;5055249;28;20511;-83
2022/06/11 06:16:11;;;;;;;2.70;1.40;;;;;;;26.13;46.91;99894.34;5055734;28;20036;-83
2022/06/11 06:18:37;;;;;;;3.42;1.42;;;;;;;26.12;47.10;99889.97;5056103;28;20024;-82
2022/06/11 06:21:03;;;;;;;2.42;1.08;;;;;;;26.11;47.28;99890.94;5055233;28;20056;-85
2022/06/11 06:23:31;;;;;;;4.03;1.48;;;;;;;26.14;47.01;99896.03;5055198;28;20524;-85
2022/06/11 06:25:56;;;;;;;2.70;1.23;;;;;;;26.14;46.81;99901.38;5055158;28;20024;-83
2022/06/11 06:28:22;;;;;;;4.65;1.40;;;;;;;26.13;47.34;99894.34;5056906;28;20029;-83
2022/06/11 06:30:48;;;;;;;3.78;1.30;;;;;;;26.14;46.81;99896.03;5055570;28;20054;-84
2022/06/11 06:33:13;;;;;;;3.97;1.58;;;;;;;26.15;46.51;99903.13;5059394;28;20454;-88
2022/06/11 06:35:39;;;;;;;2.28;1.10;;;;;;;26.13;47.07;99897.00;5060929;28;20021;-87
2022/06/11 06:38:06;;;;;;;3.75;1.40;;;;;;;26.14;47.17;99896.03;5061513;28;20035;-87
2022/06/11 06:40:31;;;;;;;3.03;1.42;;;;;;;26.13;46.80;99899.69;5061843;28;20097;-85
2022/06/11 06:42:57;;;;;;;3.42;1.48;;;;;;;26.16;47.04;99899.47;5058304;28;20053;-84
2022/06/11 06:45:22;;;;;;;4.35;1.35;;;;;;;26.19;46.86;99893.88;5055022;28;20480;-84
2022/06/11 06:47:48;;;;;;;3.45;1.50;;;;;;;26.22;46.81;99882.94;5056958;28;20050;-83
2022/06/11 06:50:14;;;;;;;4.35;1.55;;;;;;;26.20;46.80;99898.25;5057902;28;20111;-86
2022/06/11 06:52:40;;;;;;;2.88;1.40;;;;;;;26.20;46.87;99892.88;5053621;28;20159;-87
2022/06/11 06:55:07;;;;;;;3.00;1.20;;;;;;;26.20;46.81;99884.88;5053841;28;20123;-83
2022/06/11 06:57:33;;;;;;;3.50;1.55;;;;;;;26.24;47.01;99890.91;5053663;28;20032;-85
2022/06/11 07:00:03;;;;;;;2.70;1.30;;;;;;;26.21;46.87;99891.09;5053959;28;20025;-82
2022/06/11 07:02:28;;;;;;;3.58;1.52;;;;;;;26.23;47.27;99879.31;5053701;28;20382;-83
2022/06/11 07:04:54;;;;;;;3.92;1.67;;;;;;;26.24;47.16;99881.03;5054082;28;20039;-82
2022/06/11 07:07:20;;;;;;;3.10;1.20;;;;;;;26.23;47.77;99886.50;5055364;28;20454;-84
2022/06/11 07:09:55;;;;;;;3.10;1.52;;;;;;;26.25;47.84;99884.56;5054821;28;20136;-82
2022/06/11 07:12:21;;;;;;;3.03;1.40;;;;;;;26.26;47.94;99884.44;5054210;28;20033;-84
2022/06/11 07:14:47;;;;;;;3.97;1.48;;;;;;;26.28;47.68;99881.63;5054550;28;20748;-83
2022/06/11 07:17:14;;;;;;;3.03;1.25;;;;;;;26.26;47.88;99887.09;5054965;28;20091;-84
2022/06/11 07:20:10;;;;;;;5.28;1.30;;;;;;;26.25;47.82;99889.91;5054824;28;20029;-84
2022/06/11 07:22:41;;;;;;;2.73;1.27;;;;;;;26.24;47.76;99891.72;5054627;28;20439;-83
2022/06/11 07:25:09;;;;;;;2.58;1.20;;;;;;;26.27;47.93;99891.50;5053959;28;20028;-83
2022/06/11 07:27:40;;;;;;;3.58;1.52;;;;;;;26.28;47.98;99897.69;5054536;28;20032;-83
2022/06/11 07:30:21;;;;;;;5.43;1.63;;;;;;;26.30;48.10;99905.59;5056862;28;20032;-82
2022/06/11 07:32:51;;;;;;;2.85;1.13;;;;;;;26.29;47.99;99898.56;5055568;28;20025;-83
2022/06/11 07:35:20;;;;;;;4.53;1.50;;;;;;;26.31;47.93;99896.59;5054771;28;20086;-83
2022/06/11 07:37:48;;;;;;;8.18;1.50;;;;;;;26.32;48.33;99898.31;5054360;28;20036;-84
2022/06/11 07:40:14;;;;;;;3.40;1.30;;;;;;;26.33;48.28;99892.84;5054432;28;20029;-81
2022/06/11 07:42:40;;;;;;;5.63;1.30;;;;;;;26.36;48.16;99889.06;5056708;28;20376;-83
2022/06/11 07:45:06;;;;;;;4.00;1.85;;;;;;;26.37;47.79;99890.78;5058209;28;20092;-83
2022/06/11 07:50:22;;;;;;;4.10;1.50;;;;;;;26.39;47.92;99899.56;5059578;28;20039;-86
2022/06/11 07:52:49;;;;;;;5.10;1.42;;;;;;;26.42;48.02;99893.94;5056878;28;20116;-84
2022/06/11 07:55:16;;;;;;;3.80;1.40;;;;;;;26.44;47.85;99892.00;5059442;28;20028;-85
2022/06/11 07:57:41;;;;;;;2.40;1.40;;;;;;;26.44;48.05;99894.69;5057709;28;20123;-84
2022/06/11 08:00:11;;;;;;;2.78;1.55;;;;;;;26.47;48.19;99893.59;5057268;28;20067;-86
2022/06/11 08:02:38;;;;;;;7.38;1.27;;;;;;;26.48;48.12;99882.78;5056449;28;20017;-84
2022/06/11 08:05:05;;;;;;;3.55;1.20;;;;;;;26.50;47.71;99886.19;5057500;28;20569;-85
2022/06/11 08:07:30;;;;;;;3.70;1.80;;;;;;;26.53;47.61;99885.94;5056506;28;20466;-86
2022/06/11 08:09:58;;;;;;;4.65;1.60;;;;;;;26.53;47.88;99885.94;5057475;28;20044;-84
2022/06/11 08:12:24;;;;;;;4.45;1.40;;;;;;;26.56;47.98;99873.28;5059116;28;20033;-85
2022/06/11 08:14:50;;;;;;;3.53;1.10;;;;;;;26.57;48.05;99875.00;5057124;28;20037;-84
2022/06/11 08:17:15;;;;;;;2.95;1.40;;;;;;;26.59;47.94;99879.28;5056698;28;20032;-84
2022/06/11 08:19:41;;;;;;;3.40;1.25;;;;;;;26.61;48.16;99882.66;5056717;28;20020;-85
2022/06/11 08:22:07;;;;;;;3.90;1.27;;;;;;;26.62;47.92;99886.19;5057971;28;20021;-86
2022/06/11 08:24:34;;;;;;;3.30;1.23;;;;;;;26.63;47.78;99886.06;5058691;28;20021;-84
2022/06/11 08:26:59;;;;;;;4.93;1.40;;;;;;;26.66;47.52;99884.97;5056610;28;20047;-85
2022/06/11 08:29:26;;;;;;;3.67;1.20;;;;;;;26.68;47.60;99883.03;5057967;28;20443;-84
2022/06/11 08:31:51;;;;;;;4.00;1.38;;;;;;;26.71;47.63;99876.56;5056137;28;20033;-83
2022/06/11 08:34:18;;;;;;;2.47;1.10;;;;;;;26.72;47.88;99873.78;5056236;28;20087;-83
2022/06/11 08:36:45;;;;;;;3.08;1.23;;;;;;;26.73;47.44;99875.47;5056211;28;20028;-84
2022/06/11 08:39:10;;;;;;;5.63;1.33;;;;;;;26.74;47.73;99873.66;5058423;28;20111;-86
2022/06/11 08:41:37;;;;;;;4.47;1.17;;;;;;;26.76;47.21;99877.94;5059919;28;20052;-82
2022/06/11 08:44:11;;;;;;;3.08;1.17;;;;;;;26.77;47.42;99876.94;5061661;28;20021;-84
2022/06/11 08:46:40;;;;;;;3.47;1.50;;;;;;;26.78;47.31;99878.66;5062026;28;20118;-85
2022/06/11 08:49:12;;;;;;;4.20;1.65;;;;;;;26.79;47.26;99880.34;5059999;28;20099;-85
2022/06/11 08:51:44;;;;;;;2.72;1.10;;;;;;;26.83;47.09;99890.81;5060821;28;20067;-85
2022/06/11 08:54:20;;;;;;;2.78;1.02;;;;;;;26.85;47.26;99888.88;5065893;28;20064;-85
2022/06/11 08:57:00;;;;;;;3.03;1.30;;;;;;;26.86;47.06;99885.22;5067221;28;20021;-85
2022/06/11 08:59:49;;;;;;;5.43;1.30;;;;;;;26.88;47.30;99891.31;5065878;28;20025;-86
2022/06/11 09:02:45;;;;;;;2.50;1.33;;;;;;;26.89;46.93;99884.97;5065993;28;20032;-85
2022/06/11 09:05:28;;;;;;;3.53;1.23;;;;;;;26.91;47.18;99883.03;5039562;28;20047;-81
2022/06/11 09:08:19;;;;;;;3.25;1.30;;;;;;;26.93;47.03;99881.13;5058801;28;20032;-81
2022/06/11 09:11:32;;;;;;;2.30;1.10;;;;;;;26.95;46.81;99884.53;5056015;28;20183;-81
2022/06/11 09:14:28;;;;;;;3.15;0.90;;;;;;;26.98;46.68;99886.97;5036840;28;20387;-82
2022/06/11 09:17:25;;;;;;;3.22;1.30;;;;;;;26.98;47.12;99886.97;5019003;28;20502;-82
2022/06/11 09:20:09;;;;;;;4.55;1.20;;;;;;;27.00;46.98;99885.00;5043619;28;20041;-83
2022/06/11 09:23:13;;;;;;;1.67;1.08;;;;;;;27.02;46.73;99890.25;5057418;28;20028;-83
2022/06/11 09:25:48;;;;;;;3.55;1.10;;;;;;;27.03;46.86;99876.72;5051725;28;20102;-82
2022/06/11 09:28:15;;;;;;;2.30;1.10;;;;;;;27.06;47.15;99881.84;5055880;28;20115;-82
2022/06/11 09:30:53;;;;;;;2.55;1.17;;;;;;;27.07;46.83;99880.84;5059997;28;20043;-83
2022/06/11 09:34:09;;;;;;;2.55;1.08;;;;;;;27.10;46.95;99884.28;5071006;28;20028;-81
2022/06/11 09:36:49;;;;;;;3.47;1.42;;;;;;;27.11;46.82;99877.94;5077562;28;20032;-82
2022/06/11 09:39:42;;;;;;;3.35;1.42;;;;;;;27.14;47.09;99885.72;5079936;28;20049;-81
2022/06/11 09:42:59;;;;;;;3.83;1.27;;;;;;;27.15;46.60;99874.03;5079187;28;20025;-82
2022/06/11 09:45:34;;;;;;;3.80;1.63;;;;;;;27.16;47.17;99875.75;5047181;28;20462;-82
2022/06/11 09:48:21;;;;;;;4.32;1.73;;;;;;;27.18;46.63;99879.16;5075012;28;20028;-81
2022/06/11 09:50:54;;;;;;;5.18;1.30;;;;;;;27.18;47.17;99873.78;5074965;28;20024;-84
2022/06/11 09:53:42;;;;;;;3.55;1.30;;;;;;;27.21;46.64;99862.81;5075574;28;20431;-82
2022/06/11 09:56:27;;;;;;;2.70;1.20;;;;;;;27.24;46.53;99867.06;5074375;28;20060;-81
2022/06/11 09:59:23;;;;;;;2.63;1.30;;;;;;;27.25;46.54;99869.63;5075415;28;20028;-84
2022/06/11 10:02:22;;;;;;;3.78;1.50;;;;;;;27.27;46.96;99864.16;5074225;28;20035;-84
2022/06/11 10:04:50;;;;;;;4.65;1.83;;;;;;;27.29;46.84;99868.41;5074783;28;20408;-80
2022/06/11 10:07:31;;;;;;;2.67;1.10;;;;;;;27.30;46.53;99867.44;5074201;28;20039;-82
2022/06/11 10:10:35;;;;;;;3.50;1.27;;;;;;;27.32;46.79;99862.78;5073790;28;20139;-83
2022/06/11 10:13:10;;;;;;;3.22;1.35;;;;;;;27.35;46.96;99869.72;5073587;28;20090;-84
2022/06/11 10:15:39;;;;;;;2.13;1.10;;;;;;;27.38;46.77;99865.94;5077021;28;20024;-82
2022/06/11 10:18:24;;;;;;;5.22;1.42;;;;;;;27.40;46.32;99861.31;5075014;28;20067;-82
2022/06/11 10:21:04;;;;;;;3.20;1.20;;;;;;;27.43;46.52;99855.69;5074839;28;20066;-83
2022/06/11 10:23:50;;;;;;;4.32;1.20;;;;;;;27.44;46.73;99858.25;5074382;28;20103;-83
2022/06/11 10:26:39;;;;;;;7.70;1.30;;;;;;;27.47;46.55;99862.50;5074674;28;20062;-83
2022/06/11 10:29:13;;;;;;;3.58;1.30;;;;;;;27.49;46.53;99849.81;5074751;28;20056;-82
2022/06/11 10:32:08;;;;;;;4.35;1.30;;;;;;;27.52;46.36;99844.22;5074215;28;20028;-83
2022/06/11 10:34:37;;;;;;;3.03;1.38;;;;;;;27.53;46.83;99845.94;5069115;28;20135;-82
2022/06/11 10:37:26;;;;;;;4.25;1.38;;;;;;;27.55;46.64;99843.94;5074468;28;20102;-81
2022/06/11 10:40:03;;;;;;;2.67;1.20;;;;;;;27.58;46.26;99849.09;5077236;28;20042;-81
2022/06/11 10:42:39;;;;;;;3.83;1.15;;;;;;;27.61;46.36;99839.97;5074683;28;20029;-81
2022/06/11 10:45:12;;;;;;;5.40;1.77;;;;;;;27.62;46.30;99847.03;5074612;28;20401;-81
2022/06/11 10:47:41;;;;;;;2.65;1.05;;;;;;;27.64;46.45;99841.53;5074755;28;20466;-81
2022/06/11 10:50:09;;;;;;;6.20;1.40;;;;;;;27.64;46.16;99842.38;5074931;28;20111;-81
2022/06/11 10:52:43;;;;;;;4.50;1.60;;;;;;;27.68;46.15;99842.97;5074645;28;20098;-81
2022/06/11 10:55:15;;;;;;;2.55;1.20;;;;;;;27.70;45.83;99844.53;5076562;28;20032;-84
2022/06/11 10:57:43;;;;;;;4.57;1.60;;;;;;;27.71;45.64;99842.72;5081585;28;20036;-83
2022/06/11 11:00:15;;;;;;;4.18;1.20;;;;;;;27.73;45.55;99841.63;5080141;28;20366;-84
2022/06/11 11:03:14;;;;;;;3.70;1.40;;;;;;;27.76;45.91;99836.97;5080574;28;20028;-83
2022/06/11 11:06:02;;;;;;;3.05;1.50;;;;;;;27.78;45.85;99838.53;5059003;28;20040;-83
2022/06/11 11:08:55;;;;;;;2.72;1.10;;;;;;;27.79;45.51;99834.88;5078745;28;20020;-82
2022/06/11 11:12:33;;;;;;;3.50;1.33;;;;;;;27.81;45.95;99838.28;5081186;28;20052;-83
2022/06/11 11:15:29;;;;;;;2.70;1.40;;;;;;;27.84;45.52;99829.13;5078805;28;20098;-83
2022/06/11 11:18:09;;;;;;;5.18;1.55;;;;;;;27.87;45.65;99826.19;5081623;28;20115;-86
2022/06/11 11:20:49;;;;;;;2.42;1.00;;;;;;;27.88;45.44;99825.19;5083516;28;20039;-85
2022/06/11 11:23:42;;;;;;;4.32;1.30;;;;;;;27.90;45.29;99833.13;5083713;28;20454;-86
2022/06/11 11:26:34;;;;;;;2.67;1.30;;;;;;;27.90;45.04;99831.28;5078301;28;20032;-84
2022/06/11 11:29:12;;;;;;;4.45;1.20;;;;;;;27.92;45.33;99832.00;5080115;28;20036;-83
2022/06/11 11:31:45;;;;;;;2.40;1.27;;;;;;;27.93;45.16;99822.97;5078323;28;20071;-82
2022/06/11 11:34:17;;;;;;;5.72;2.33;;;;;;;27.94;44.96;99819.31;5078624;28;20056;-84
2022/06/11 11:36:42;;;;;;;8.13;3.63;;;;;;;27.96;44.98;99813.81;5076797;28;20060;-81
2022/06/11 11:39:15;;;;;;;9.07;4.60;;;;;;;27.99;45.13;99808.22;5078236;28;20420;-85
2022/06/11 11:41:59;;;;;;;6.85;4.25;;;;;;;27.99;45.21;99809.03;5078820;28;20032;-84
2022/06/11 11:44:25;;;;;;;8.45;3.90;;;;;;;28.02;45.17;99810.59;5076980;28;20039;-86
2022/06/11 11:46:54;;;;;;;7.50;4.18;;;;;;;28.02;45.31;99810.59;5071753;28;20036;-83
2022/06/11 11:49:39;;;;;;;8.52;4.55;;;;;;;28.03;45.43;99809.63;5077225;28;20029;-83
2022/06/11 11:52:35;;;;;;;;;;;;;;;;;;;;;
2022/06/11 11:55:17;;;;;;;11.32;4.47;;;;;;;28.08;44.70;99801.19;5046427;28;20085;-87
2022/06/11 12:01:08;;;;;;;7.68;4.22;;;;;;;28.10;44.67;99800.09;5014992;28;20492;-88
2022/06/11 12:03:37;;;;;;;7.60;4.35;;;;;;;28.11;44.86;99791.06;5040564;28;20029;-87
2022/06/11 12:06:06;;;;;;;8.95;4.45;;;;;;;28.13;44.91;99799.81;5038835;28;20029;-87
2022/06/11 12:09:37;;;;;;;6.82;4.10;;;;;;;28.14;45.03;99789.94;5036444;28;20030;-83
2022/06/11 12:12:57;;;;;;;7.20;3.85;;;;;;;28.17;44.72;99783.47;5018828;28;20398;-85
2022/06/11 12:15:32;;;;;;;7.20;3.97;;;;;;;28.19;44.96;99786.84;5037349;28;20108;-85